Cruisers Forum
 


Join CruisersForum Today

Reply
 
Thread Tools Rate Thread Display Modes
Old 02-03-2011, 12:21   #16
Registered User

Join Date: Feb 2011
Location: Swansboro, NC
Boat: Looking for that next boat...
Posts: 358
Re: AIS 'Encoder' Info ?

@Paul - Sure, I can wait. I decided that writing my own AIS encoder would be too big a project to take on so I plan on adding "static" AIS targets into the scene instead. All I need the AIS simulator for is to create some NMEA strings that I can copy / paste into my simulator. Hopefully that'll work.

@Thomas - Thanks, I searched for the apps you referred to but didn't find them either.
__________________

__________________
prof_mariner is offline   Reply With Quote
Old 02-03-2011, 12:52   #17
Obsfucator, Second Class
 
dacust's Avatar

Cruisers Forum Supporter

Join Date: Feb 2008
Location: Southeast USA.
Boat: 1982 Sea Ray SRV360
Posts: 1,743
Re: AIS 'Encoder' Info ?

Quote:
Originally Posted by prof_mariner View Post
@Paul - Sure, I can wait. I decided that writing my own AIS encoder would be too big a project to take on so I plan on adding "static" AIS targets into the scene instead. All I need the AIS simulator for is to create some NMEA strings that I can copy / paste into my simulator. Hopefully that'll work.

@Thomas - Thanks, I searched for the apps you referred to but didn't find them either.
You might ask Paul (phiggins) about his AIS simulator. He is currently often posting in another thread he started:

-->Google Earth to BSB / KAP

-dan
__________________

dacust is offline   Reply With Quote
Old 02-03-2011, 12:55   #18
Registered User

Join Date: Feb 2011
Location: Swansboro, NC
Boat: Looking for that next boat...
Posts: 358
Re: AIS 'Encoder' Info ?

Thanks Dan, I sent him a PM.
__________________
prof_mariner is offline   Reply With Quote
Old 04-03-2011, 16:10   #19
Registered User

Join Date: Mar 2011
Posts: 10
Re: AIS 'Encoder' Info ?

In addition, the US Coast Guard has documented some of the AIS message types on their Web Site: http://www.navcen.uscg.gov/?pageName=AIS

Also many of the AIS vendors have included sample AIS data on their web sites. Here is some sample data, although I have a sneaking suspicion rather than being from a vendor, it is actually a log from my own boat.

!AIVDO,1,1,,,B3P;s:@007vPcA7@dEaD?wP5wP06,0*3A
!AIVDM,1,1,,A,33P7jRP000wqsvTM5bhdibB>00wP,0*08
!AIVDM,1,1,,B,13P7ee@000wqsc:M5aeVrb0@0`5E,0*76
!AIVDM,1,1,,B,33QbwT1001Os;=PM0vp=360@0lkr,0*29
!AIVDO,1,1,,,B3P;s:@00GvPcA7@dEUEOwP5wP06,0*0F
!AIVDM,1,1,,A,33M@V`U000Ors:6M49rbos8B0000,0*0C
!AIVDM,1,1,,B,14hEVJ0001OsED>M0wIJ968D2@61,0*1C
!AIVDM,1,1,,A,13P;Qe@03RwriAPM2aKiVQFD1l1k,0*29
!AIVDM,1,1,,A,13P;i=P001wrteJM4g71f8rB086?,0*53
$GPGBS,225025.00,3.7,2.6,5.4,,,,*42
!AIVDO,1,1,,,B3P;s:@00GvPcA7@dEUFSwP5wP06,0*10
!AIVDM,1,1,,A,13M@F30001wqWDDM7I7uDBrD0`6J,0*61
!AIVDM,1,1,,A,16tL1v003=wvpa8Loa@as80B0<<P,0*42
!AIVDM,1,1,,A,13M@ENh000OrtThM4U>ueP>@0D1j,0*0C
$GPRMC,225026.00,A,5045.41035,N,00118.08954,W,0.16 4,140.39,280510,,,A*70
!AIVDO,1,1,,,B3P;s:@00GvPc@W@dEMGgwP5wP06,0*5C
!AIVDM,1,1,,B,13P7JTPu@;wrL`@M1ui8c6vB0D2j,0*7C
!AIVDM,1,1,,B,181:KU@001wqr4fM5mgKw4FH086u,0*51
!AIVDM,1,1,,B,33P88o@sR6wr5khM4i>eL:RF00wh,0*48
!AIVDM,2,1,3,A,53P;i=P2AG7c8<i3T010u9B0tJ1=04Tr000 0000S40s7740Hti@H54R@C4,0*5D
!AIVDM,2,2,3,A,h0000000001,2*7E
!AIVDM,1,1,,A,13cV5A002bOrIeTM324kqS:H0@7?,0*4B
!AIVDM,2,1,4,A,53OTJB000000mMICJ21HDi<PD@622222222 2220T28F155L<0<TkmE20CD53,0*1F
!AIVDM,2,2,4,A,k`5Bh000002,2*06
!AIVDO,1,1,,,B3P;s:@00GvPc@W@dEIHswP5wP06,0*43
!AIVDM,1,1,,A,19NWu15P1COrrtpM3t@66wvH0d2A,0*0B
!AIVDM,1,1,,B,33P7jRP000wqsvTM5bhdibBJ00lA,0*75
!AIVDM,1,1,,A,10FGp`?P?w<tSF0l4Q@>4?wv0`7t,0*12
!AIVDM,1,1,,A,13M@D8g001wqVGPM7gFn0V2F06k8,0*36
!AIVDM,1,1,,B,13P7bn0000wqWfTM7bAeQ5`J00SB,0*4C
!AIVDM,1,1,,A,13P9fuh000OqW10M7a89:THF2@87,0*69
!AIVDO,1,1,,,B3P;s:@00WvPc@7@dE=K;wP5wP06,0*0C
!AIVDM,1,1,,B,402=aTiuaNFj=OrrkDM4E`Q0288;,0*6D
!AIVDM,1,1,,B,13Q;0d001mOr4KPM4IN1cQHH00Rp,0*08
!AIVDM,1,1,,B,13M@F<O000OqWU@M7I5VVBtH0H8I,0*22
!AIVDM,1,1,,B,15R<5l0000wqqITM5qf<dTJJ0<2N,0*6F
$GPGBS,225029.00,3.9,2.7,5.5,,,,*40
!AIVDM,1,1,,B,13P9:j@000Oqsm8M5dvu37<N0D1a,0*3B
!AIVDO,1,1,,,B3P;s:@00WvPc?7@dE5M?wP5wP06,0*79
!AIVDM,1,1,,A,13M@D7@3j0Oqm1<M6EjTn3rL0<29,0*49
$GPRMC,225030.00,A,5045.40958,N,00118.08996,W,0.27 1,152.37,280510,,,A*70
!AIVDM,1,1,,A,13P88o@rj6wr5i>M4iieIbPN088t,0*7F
!AIVDM,1,1,,B,13P:RVh000OqtBvM5ahq@4HP0@8v,0*3D
!AIVDM,1,1,,A,33P7jRP000wqsvTM5bhdibBN0000,0*5F
!AIVDO,1,1,,,B3P;s:@00WvPc>W@dDuO?wP5wP06,0*5B
!AIVDM,1,1,,B,13P9?Dg000Or6DFM2HphKbhN00S0,0*28
!AIVDM,1,1,,B,13M@H25P?wwqK`pM806>4?vL0H9g,0*7A
!AIVDM,1,1,,B,16tL1v003=wvpE8Lo`m9s80N0@9h,0*5C
!AIVDO,1,1,,,B3P;s:@017vPc:7@dD1Q3wP5sP06,0*0C
!AIVDO,1,1,,,B3P;s:@017vPc77@dCIRWwP5sP06,0*19
!AIVDM,1,1,,A,13P7ee@000wqscDM5aeLF:0R0d1h,0*42
$GPGBS,225033.00,2.6,1.7,3.4,,,,*41
!AIVDM,1,1,,B,33P88o@sR6wr5hTM4irMDbNT01t@,0*67
!AIVDM,1,1,,B,13cV5A002bOrIubM31o3qC:V00S8,0*73
!AIVDM,2,1,5,A,53cV5A02<k`PT9@J220M84p@F0U@4hT6222 222163JF@?5N`0D1S5Dj2CQp8,0*70
!AIVDM,2,2,5,A,88888888881,2*20
!AIVDO,1,1,,,B3P;s:@017vPc57@dC1SwwP5sP06,0*42
!AIVDM,1,1,,B,33P7jRP000wqsvTM5bhdibBR011@,0*30
$GPRMC,225034.00,A,5045.40607,N,00118.09222,W,0.37 5,161.96,280510,,,A*7A
!AIVDM,1,1,,B,13P;i=P001wrteJM4g74p`rV06k8,0*5B
!AIVDO,1,1,,,B3P;s:@00ovPc37@dBiU?wP5sP06,0*0A
!AIVDM,1,1,,A,14hEVJ0001OsED:M0wHb968`2D2b,0*45
!AIVDM,1,1,,B,13IbAP0uAmOs0CdM3EMUt4fT08<4,0*0E
!AIVDO,1,1,,,B3P;s:@00ovPc27@dBaVOwP5sP06,0*70
!AIVDM,1,1,,A,13P7JTPsP8wrL`@M1ui80VtT0H<H,0*6D
!AIVDM,1,1,,A,33P88o@sR6wr5e<M4jUuG:Nb010h,0*1C
!AIVDM,1,1,,B,13M@ENh001OrtTlM4U>0FP>V0@<q,0*68
!AIVDO,1,1,,,B3P;s:@00ovPc1W@dBUWSwP5sP06,0*3A
!AIVDM,1,1,,B,19NWu15P1COrs0tM3sPV2wvb0Vk8,0*02
!AIVDM,1,1,,B,10FGp`?P?w<tSF0l4Q@>4?wv0h=5,0*52
!AIVDM,1,1,,A,13M@F<O000OqWTNM7IJFVBt`0@=<,0*11
!AIVDM,1,1,,A,181:KU@000wqr4bM5mgsw4Ff0<2H,0*7C
$GPGBS,225037.00,2.5,1.7,3.4,,,,*46
!AIVDM,1,1,,B,13M@D8g001wqVGPM7gG=F62`06k8,0*57
!AIVDM,1,1,,A,13P9:j@000Oqsm>M5dwM87<h0<1a,0*52
!AIVDM,1,1,,A,15R<5l0000wqqITM5qf<dTJb06k8,0*61
!AIVDO,1,1,,,B3P;s:@00GvPc17@dBUWcwP5sP06,0*42
$GPRMC,225038.00,A,5045.40572,N,00118.09318,W,0.25 1,167.63,280510,,,A*74
!AIVDM,1,1,,A,13P7bn0000wqWfVM7bAeQ5`f08=`,0*25
!AIVDM,1,1,,A,13P7jRP000wqsvTM5bhdibBf0L<O,0*7A
!AIVDM,1,1,,A,402=aTiuaNFjGOrrkDM4E`Q028>8,0*11
!AIVDO,1,1,,,B3P;s:@00WvPbvW@dBU`kwP5sP06,0*4B
!AIVDM,1,1,,B,13P9fuh000OqW10M7a89:THd20Rw,0*12
!AIVDM,1,1,,B,13M@D7@3j0Oqm?LM6Dw4pSth0<2:,0*17
!AIVDM,1,1,,A,13cV5A002aOrJ;PM31d3pS8j00S<,0*2C
!AIVDM,1,1,,B,13P88o@sR6wr5dNM4jfM?bLj00Rb,0*26
!AIVDO,1,1,,,B3P;s:@00WvPbu7@dBUakwP5sP06,0*29
!AIVDM,1,1,,A,13Q;0d001mOr4UlM4JE1cQJf0@>i,0*08
!AIVDM,1,1,,A,13P:RVh001OqtBvM5ak9@4Hl0H>u,0*45
!AIVDM,2,1,6,A,53M@H201prSTlMLsT00@tp4hB18D@Hu8@00 0000Q00m0;4t<06C@DPj5kki8,0*6A
!AIVDM,2,2,6,A,30FED000002,2*54
!AIVDM,1,1,,B,33P7jRP000wqsvTM5bhdibBj0000,0*78
!AIVDO,1,1,,,B3P;s:@00WvPbtW@dBUbcwP5sP06,0*43
$GPGBS,225041.00,2.5,1.6,3.4,,,,*46
!AIVDM,1,1,,A,13P9?Dg000Or6DHM2HnhKbhl00SC,0*6A
!AIVDM,1,1,,A,13M@H25P?wwqK`pM806>4?vh06k8,0*2E
$GPRMC,225042.00,A,5045.40595,N,00118.09365,W,0.14 7,171.88,280510,,,A*7C
!AIVDO,1,1,,,B3P;s:@00GvPbt7@dBecKwP5sP06,0*2A
!AIVDM,1,1,,A,13P7EpPP00Orq3`M4:gWHgvp0H@7,0*3C
!AIVDM,2,1,7,B,53P7JTP2<tME`pq;D01=B0<h58D00000000 0000t01A0B5Dci6D3lU4p1RDj,0*4D
!AIVDM,2,2,7,B,0SmDSQ@0003,2*1B
!AIVDM,1,1,,B,13P7ee@000wqsc>M5aek?b0n0PS=,0*02
!AIVDO,1,1,,,B3P;s:@00GvPbt7@dBmckwP5sP06,0*02
!AIVDM,1,1,,A,33M@E;E000wrtPTM4TwPUP:n0000,0*0E
!AIVDM,1,1,,A,33P88o@sR6wr5`4M4kQu=:Jp01oh,0*27
!AIVDO,1,1,,,B3P;s:@00GvPbtW@dBqdCwP5sP06,0*51
!AIVDM,1,1,,B,16tL1v003=wvonPLo`:as80n06k8,0*5B
!AIVDM,1,1,,A,13P;i=P001wrteJM4g7;3`rr0D1H,0*68
!AIVDO,1,1,,,B3P;s:@007vPbu7@dC1dOwP5sP06,0*0D
!AIVDM,1,1,,B,13cV5A002aOrJFdM31RCok8t08Am,0*52
$GPGBS,225045.00,2.4,1.5,3.4,,,,*40
!AIVDM,2,1,8,B,50FGp`020<VDL90j220Pm>0QE9Lu9@R2222 2221J2Po8840Ht7d<<<<<8<<8,0*16
!AIVDM,2,2,8,B,88888888889,2*26
!AIVDM,1,1,,A,13M@ENh000OrtTLM4U:PFP>p0HB6,0*39
!AIVDM,1,1,,B,D02=aTh00000,0*33
$GPRMC,225046.00,A,5045.40658,N,00118.09329,W,0.05 3,173.80,280510,,,A*7C
!AIVDO,1,1,,,B3P;s:@007vPbv7@dC5dcwP5sP06,0*26
!AIVDM,1,1,,B,181:KU@000wqr4`M5mgKw4G006k8,0*31
!AIVDM,1,1,,B,33P7jRP000wqsvTM5bhdibBv015i,0*39
!AIVDM,1,1,,B,33P88o@sR6wr5VRM4kju:bHv0000,0*12
!AIVDO,1,1,,,B3P;s:@007vPbvW@dC=dwwP5sP06,0*5A
!AIVDM,1,1,,A,10FGp`?P?w<tSF0l4Q@>4?wv0`C9,0*2B
!AIVDM,1,1,,B,13P7JTPuP5wrL`@M1ui8c6rt06k8,0*29
!AIVDM,1,1,,B,13P7bn0000wqWf`M7bAeQ5a000SH,0*09
!AIVDM,1,1,,A,13M@D8g000wqVGPM7gG=5n0t0HCG,0*41
!AIVDM,1,1,,B,13M@F<O000OqWUlM7I4VVBtt08CI,0*38
!AIVDM,1,1,,A,33M@Dw?001wqHojM8@@AsK2v09l0,0*40
!AIVDO,1,1,,,B3P;s:@007vPbw7@dCEdowP5sP06,0*5B
!AIVDM,1,1,,A,13P9<@hrQpwrl4@M3B99W7Tv00Rm,0*56
!AIVDM,1,1,,B,402=aTiuaNFjQOrrkDM4E`Q028Cl,0*2D
!AIVDM,1,1,,B,15R<5l0000wqqITM5qf<dTK20@Cw,0*22
__________________
stevead is offline   Reply With Quote
Old 09-03-2011, 10:26   #20
Registered User
 
rooiedirk's Avatar

Join Date: Aug 2010
Location: Netherlands
Boat: Oneoff
Posts: 300
Re: AIS 'Encoder' Info ?

Hoi,
I'm not sure how these guys did it, but the used it to make clear to goverment officer that the internet can not be used to fine people. (which the tried to do). Anyhow it is fun.
Login
Dirk
__________________
rooiedirk is offline   Reply With Quote
Old 07-04-2011, 12:40   #21
nem
Registered User

Join Date: Apr 2011
Posts: 1
Re: AIS 'Encoder' Info ?

Here is a free and OpenSource implementation in .NET it works well too! It may have some errors in the XML message maps, but they are easy to fix. OpenSkipper Open Skipper - Browse /OpenSkipper/1.2 at SourceForge.net
__________________
nem is offline   Reply With Quote
Old 27-03-2017, 16:38   #22
Registered User

Join Date: Mar 2017
Posts: 1
Re: AIS 'Encoder' Info ?

Dear Paul.
I need to put meteorological information into an AIS equipment. Do you know how to encode the information? message 8, etc? Thank you. I am a microcontroller programmer.
__________________
jlcava is offline   Reply With Quote
Old 27-03-2017, 21:19   #23
Registered User

Join Date: Mar 2011
Posts: 10
Re: AIS 'Encoder' Info ?

The payload for an AIS Binary Broadcast Message (Type 8), Functional ID 31 (Meteorological and Hydrological Data ) can be found in the International Maritime Organisation (IMO) Circular 289.
A copy can be found on the US Coastguard site https://www.navcen.uscg.gov/?pageName=AISReferences
__________________

__________________
stevead is offline   Reply With Quote
Reply

Tags
ais

Thread Tools
Display Modes Rate This Thread
Rate This Thread:

Posting Rules
You may not post new threads
You may not post replies
You may not post attachments
You may not edit your posts

BB code is On
Smilies are On
[IMG] code is On
HTML code is Off
Trackbacks are Off
Pingbacks are Off
Refbacks are Off


Similar Threads
Thread Thread Starter Forum Replies Last Post
Can You Get Radar & AIS Overlay on Laptop ? AIS Transceiver Recommendations ? lunasea.ds Marine Electronics 22 27-12-2010 14:06
AIS VHF Antenna Info Scrimshaw4 Navigation 14 12-06-2009 16:40
AIS Info S/V Antares Marine Electronics 11 05-11-2008 23:58
Info on London, UK live aboard info capcook Liveaboard's Forum 3 29-08-2008 18:58
AIS 2xtreme Navigation 2 06-04-2007 17:49



Copyright 2002- Social Knowledge, LLC All Rights Reserved.

All times are GMT -7. The time now is 14:14.


Google+
Powered by vBulletin® Version 3.8.8 Beta 1
Copyright ©2000 - 2017, vBulletin Solutions, Inc.
Social Knowledge Networks
Powered by vBulletin® Version 3.8.8 Beta 1
Copyright ©2000 - 2017, vBulletin Solutions, Inc.

ShowCase vBulletin Plugins by Drive Thru Online, Inc.